createdAt,value
2018-12-02T00:01:34.585Z,67.60
2018-12-02T00:04:05.745Z,67.84
2018-12-02T00:06:34.516Z,67.66
2018-12-02T00:09:07.062Z,67.17
2018-12-02T00:11:35.504Z,67.09
2018-12-02T00:14:05.235Z,66.82
2018-12-02T00:16:36.539Z,66.61
2018-12-02T00:19:06.090Z,67.02
2018-12-02T00:21:34.505Z,67.13
2018-12-02T00:24:06.187Z,67.80
2018-12-02T00:26:37.365Z,67.20
2018-12-02T00:29:05.846Z,67.39
2018-12-02T00:31:34.389Z,67.28
2018-12-02T00:34:05.405Z,67.36
2018-12-02T00:36:33.824Z,67.79
2018-12-02T00:39:05.377Z,67.47
2018-12-02T00:41:33.817Z,67.06
2018-12-02T00:44:07.470Z,67.07
2018-12-02T00:46:35.898Z,67.41
2018-12-02T00:49:05.178Z,67.37
2018-12-02T00:51:33.621Z,67.45
2018-12-02T00:54:04.682Z,67.54
2018-12-02T00:56:35.128Z,66.71
2018-12-02T00:59:05.233Z,66.39
2018-12-02T01:01:33.657Z,67.06
2018-12-02T01:04:05.250Z,67.10
2018-12-02T01:06:33.668Z,66.87
2018-12-02T01:09:04.645Z,66.90
2018-12-02T01:11:33.140Z,67.91
2018-12-02T01:14:03.500Z,67.37
2018-12-02T01:16:31.948Z,67.60
2018-12-02T01:19:00.373Z,66.84
2018-12-02T01:21:28.838Z,67.23
2018-12-02T01:23:57.236Z,67.34
2018-12-02T01:26:25.677Z,67.70
2018-12-02T01:28:54.095Z,68.12
2018-12-02T01:31:22.558Z,68.12
2018-12-02T01:33:50.983Z,68.41
2018-12-02T01:36:19.524Z,67.44
2018-12-02T01:38:47.944Z,67.26
2018-12-02T01:41:16.385Z,67.58
2018-12-02T01:43:44.920Z,67.49
2018-12-02T01:46:13.379Z,67.71
2018-12-02T01:48:41.804Z,67.96
2018-12-02T01:51:10.246Z,67.92
2018-12-02T01:53:38.705Z,68.48
2018-12-02T01:56:07.197Z,68.24
2018-12-02T01:58:35.625Z,68.08
2018-12-02T02:01:05.289Z,67.07
2018-12-02T02:03:33.731Z,67.09
2018-12-02T02:06:04.641Z,67.79
2018-12-02T02:08:33.048Z,66.87
2018-12-02T02:11:05.209Z,67.29
2018-12-02T02:13:33.617Z,67.46
2018-12-02T02:16:04.805Z,67.46
2018-12-02T02:18:33.228Z,66.72
2018-12-02T02:21:06.089Z,67.25
2018-12-02T02:23:34.493Z,67.50
2018-12-02T02:26:05.514Z,66.40
2018-12-02T02:28:33.929Z,66.16
2018-12-02T02:31:06.098Z,66.49
2018-12-02T02:33:34.523Z,66.80
2018-12-02T02:36:06.217Z,67.39
2018-12-02T02:38:34.633Z,67.68
2018-12-02T02:41:06.287Z,67.52
2018-12-02T02:43:34.698Z,68.01
2018-12-02T02:46:05.454Z,68.35
2018-12-02T02:48:33.860Z,67.08
2018-12-02T02:51:06.113Z,67.79
2018-12-02T02:53:34.554Z,67.45
2018-12-02T02:56:05.671Z,67.54
2018-12-02T02:58:34.130Z,68.03
2018-12-02T03:01:06.111Z,67.25
2018-12-02T03:03:34.559Z,67.98
2018-12-02T03:06:05.317Z,67.27
2018-12-02T03:08:33.784Z,67.03
2018-12-02T03:11:05.266Z,66.64
2018-12-02T03:13:33.721Z,67.42
2018-12-02T03:16:04.671Z,67.12
2018-12-02T03:18:33.136Z,66.12
2018-12-02T03:21:04.381Z,65.74
2018-12-02T03:23:32.842Z,65.50
2018-12-02T03:26:03.765Z,65.84
2018-12-02T03:28:32.213Z,65.93
2018-12-02T03:31:00.655Z,66.33
2018-12-02T03:33:29.416Z,65.75
2018-12-02T03:35:57.820Z,65.82
2018-12-02T03:38:26.272Z,66.10
2018-12-02T03:40:54.700Z,66.14
2018-12-02T03:43:23.140Z,65.54
2018-12-02T03:45:51.687Z,65.53
2018-12-02T03:48:20.109Z,64.72
2018-12-02T03:50:48.543Z,65.07
2018-12-02T03:53:16.985Z,65.13
2018-12-02T03:55:45.427Z,64.97
2018-12-02T03:58:13.825Z,64.82
2018-12-02T04:00:43.522Z,65.23
2018-12-02T04:03:12.309Z,64.59
2018-12-02T04:05:40.762Z,64.50
2018-12-02T04:08:09.273Z,64.85
2018-12-02T04:10:37.680Z,64.68
2018-12-02T04:13:06.323Z,63.77
2018-12-02T04:15:34.750Z,63.76
2018-12-02T04:18:07.087Z,63.59
2018-12-02T04:20:35.500Z,63.28
2018-12-02T04:23:05.781Z,63.16
2018-12-02T04:25:34.215Z,63.34
2018-12-02T04:28:05.903Z,62.68
2018-12-02T04:30:43.052Z,62.44
2018-12-02T04:33:11.775Z,62.40
2018-12-02T04:35:40.207Z,62.39
2018-12-02T04:38:08.673Z,62.27
2018-12-02T04:40:37.072Z,62.25
2018-12-02T04:43:05.649Z,61.51
2018-12-02T04:45:34.077Z,61.86
2018-12-02T04:48:05.353Z,61.65
2018-12-02T04:50:33.765Z,61.62
2018-12-02T04:53:06.121Z,60.94
2018-12-02T04:55:34.529Z,61.41
2018-12-02T04:58:06.216Z,61.84
2018-12-02T05:00:34.641Z,62.11
2018-12-02T05:03:06.549Z,61.55
2018-12-02T05:05:34.973Z,61.82
2018-12-02T05:08:05.453Z,62.19
2018-12-02T05:10:33.862Z,61.87
2018-12-02T05:13:06.147Z,62.26
2018-12-02T05:15:34.559Z,61.69
2018-12-02T05:18:07.008Z,62.11
2018-12-02T05:20:35.444Z,60.83
2018-12-02T05:23:05.190Z,61.94
2018-12-02T05:25:33.608Z,62.15
2018-12-02T05:28:05.374Z,61.90
2018-12-02T05:30:33.803Z,61.71
2018-12-02T05:33:05.497Z,60.64
2018-12-02T05:35:33.928Z,60.94
2018-12-02T05:38:07.096Z,60.98
2018-12-02T05:40:35.513Z,61.45
2018-12-02T05:43:05.186Z,61.90
2018-12-02T05:45:33.660Z,61.47
2018-12-02T05:48:05.420Z,61.90
2018-12-02T05:50:33.865Z,60.68
2018-12-02T05:53:05.957Z,60.72
2018-12-02T05:55:36.217Z,61.00
2018-12-02T05:58:05.573Z,60.82
2018-12-02T06:00:33.991Z,60.98
2018-12-02T06:03:06.269Z,62.18
2018-12-02T06:05:34.704Z,61.85
2018-12-02T06:08:07.209Z,61.73
2018-12-02T06:10:35.656Z,62.19
2018-12-02T06:13:05.672Z,62.19
2018-12-02T06:15:34.148Z,61.96
2018-12-02T06:18:05.370Z,61.34
2018-12-02T06:20:33.820Z,61.86
2018-12-02T06:23:04.613Z,60.65
2018-12-02T06:25:34.230Z,61.04
2018-12-02T06:28:04.621Z,60.92
2018-12-02T06:30:33.779Z,61.71
2018-12-02T06:33:06.541Z,61.58
2018-12-02T06:35:35.041Z,62.26
2018-12-02T06:38:07.125Z,61.82
2018-12-02T06:40:37.014Z,61.51
2018-12-02T06:43:05.526Z,61.14
2018-12-02T06:45:34.479Z,61.29
2018-12-02T06:48:04.701Z,61.16
2018-12-02T06:50:33.109Z,60.48
2018-12-02T06:53:03.722Z,60.60
2018-12-02T06:56:10.007Z,60.44
2018-12-02T06:58:46.182Z,61.04
2018-12-02T07:05:03.745Z,61.35
2018-12-02T07:07:32.249Z,61.32
2018-12-02T07:10:00.669Z,61.51
2018-12-02T07:12:29.150Z,62.38
2018-12-02T07:14:57.564Z,62.07
2018-12-02T07:17:26.902Z,62.48
2018-12-02T07:19:56.024Z,62.37
2018-12-02T07:22:27.591Z,61.66
2018-12-02T07:24:56.080Z,61.73
2018-12-02T07:27:24.549Z,60.95
2018-12-02T07:29:53.030Z,61.69
2018-12-02T07:32:21.488Z,61.34
2018-12-02T07:34:49.909Z,61.00
2018-12-02T07:37:20.877Z,61.32
2018-12-02T07:40:00.494Z,61.22
2018-12-02T07:42:28.999Z,61.33
2018-12-02T07:44:57.413Z,62.09
2018-12-02T07:47:25.870Z,62.19
2018-12-02T07:49:54.302Z,61.84
2018-12-02T07:52:22.725Z,62.54
2018-12-02T07:54:51.194Z,62.38
2018-12-02T07:57:19.609Z,62.55
2018-12-02T07:59:48.078Z,63.03
2018-12-02T08:02:16.542Z,62.23
2018-12-02T08:04:45.011Z,62.41
2018-12-02T08:07:13.416Z,62.11
2018-12-02T08:09:42.625Z,61.34
2018-12-02T08:12:11.057Z,62.17
2018-12-02T08:14:39.481Z,62.53
2018-12-02T08:17:07.945Z,60.88
2018-12-02T08:19:36.374Z,61.79
2018-12-02T08:22:05.132Z,61.16
2018-12-02T08:24:33.529Z,61.52
2018-12-02T08:27:06.699Z,61.37
2018-12-02T08:29:35.110Z,62.39
2018-12-02T08:32:06.077Z,61.83
2018-12-02T08:34:34.505Z,62.28
2018-12-02T08:37:05.556Z,62.71
2018-12-02T08:39:33.960Z,63.01
2018-12-02T08:42:06.783Z,62.20
2018-12-02T08:44:35.312Z,62.25
2018-12-02T08:47:06.770Z,63.10
2018-12-02T08:49:35.459Z,63.74
2018-12-02T08:52:07.964Z,63.98
2018-12-02T08:54:38.504Z,64.28
2018-12-02T08:57:08.564Z,64.06
2018-12-02T08:59:37.153Z,64.57
2018-12-02T09:02:05.985Z,65.00
2018-12-02T09:04:34.452Z,64.42
2018-12-02T09:07:08.953Z,64.41
2018-12-02T09:09:37.699Z,65.11
2018-12-02T09:12:06.765Z,64.87
2018-12-02T09:14:35.237Z,64.75
2018-12-02T09:17:06.584Z,65.10
2018-12-02T09:19:35.048Z,64.75
2018-12-02T09:22:06.726Z,64.88
2018-12-02T09:24:35.201Z,65.76
2018-12-02T09:27:07.472Z,64.75
2018-12-02T09:29:35.931Z,65.22
2018-12-02T09:32:06.189Z,64.74
2018-12-02T09:34:34.654Z,65.24
2018-12-02T09:37:06.584Z,66.38
2018-12-02T09:39:35.038Z,66.36
2018-12-02T09:42:05.161Z,66.75
2018-12-02T09:44:33.833Z,66.78
2018-12-02T09:47:04.978Z,67.10
2018-12-02T09:49:33.408Z,67.78
2018-12-02T09:52:03.475Z,67.91
2018-12-02T09:54:31.946Z,68.24
2018-12-02T09:57:00.407Z,69.37
2018-12-02T09:59:28.826Z,69.54
2018-12-02T10:01:57.333Z,69.40
2018-12-02T10:04:25.749Z,69.58
2018-12-02T10:06:54.289Z,69.12
2018-12-02T10:09:22.875Z,68.27
2018-12-02T10:11:51.294Z,69.74
2018-12-02T10:14:20.026Z,70.23
2018-12-02T10:16:48.425Z,69.31
2018-12-02T10:19:16.836Z,70.01
2018-12-02T10:21:45.290Z,69.55
2018-12-02T10:24:13.694Z,68.97
2018-12-02T10:26:42.148Z,69.52
2018-12-02T10:29:10.567Z,69.18
2018-12-02T10:31:39.065Z,69.35
2018-12-02T10:34:08.957Z,69.47
2018-12-02T10:36:37.585Z,69.10
2018-12-02T10:39:09.492Z,68.87
2018-12-02T10:41:38.036Z,68.13
2018-12-02T10:44:06.581Z,68.07
2018-12-02T10:46:35.101Z,67.53
2018-12-02T10:49:05.974Z,68.12
2018-12-02T10:51:34.453Z,68.45
2018-12-02T10:54:06.893Z,68.86
2018-12-02T10:56:35.374Z,68.82
2018-12-02T10:59:06.144Z,68.53
2018-12-02T11:01:39.485Z,67.97
2018-12-02T11:04:07.913Z,69.19
2018-12-02T11:06:36.435Z,68.39
2018-12-02T11:09:09.609Z,68.39
2018-12-02T11:11:38.143Z,68.87
2018-12-02T11:14:07.033Z,68.98
2018-12-02T11:16:35.622Z,69.29
2018-12-02T11:19:05.133Z,70.08
2018-12-02T11:21:33.601Z,70.24
2018-12-02T11:24:04.650Z,69.44
2018-12-02T11:26:33.106Z,70.36
2018-12-02T11:29:03.424Z,69.63
2018-12-02T11:31:31.849Z,70.04
2018-12-02T11:34:00.673Z,69.54
2018-12-02T11:36:29.096Z,70.10
2018-12-02T11:38:57.517Z,69.71
2018-12-02T11:41:26.404Z,70.73
2018-12-02T11:43:54.815Z,71.12
2018-12-02T11:46:23.504Z,71.88
2018-12-02T11:48:52.264Z,72.08
2018-12-02T11:51:20.685Z,71.96
2018-12-02T11:53:49.165Z,72.61
2018-12-02T11:56:17.614Z,72.28
2018-12-02T11:58:46.045Z,71.92
2018-12-02T12:01:14.588Z,72.24
2018-12-02T12:03:43.040Z,72.81
2018-12-02T12:06:11.616Z,73.01
2018-12-02T12:08:40.102Z,72.36
2018-12-02T12:11:08.595Z,72.14
2018-12-02T12:13:37.098Z,72.70
2018-12-02T12:16:05.568Z,72.44
2018-12-02T12:18:34.100Z,73.09
2018-12-02T12:21:05.280Z,73.32
2018-12-02T12:23:33.731Z,73.25
2018-12-02T12:26:05.356Z,73.70
2018-12-02T12:28:33.797Z,74.38
2018-12-02T12:31:04.364Z,73.30
2018-12-02T12:33:34.965Z,73.97
2018-12-02T12:36:08.027Z,74.24
2018-12-02T12:38:36.668Z,74.39
2018-12-02T12:41:07.910Z,75.42
2018-12-02T12:43:38.144Z,75.18
2018-12-02T12:46:06.985Z,76.02
2018-12-02T12:48:35.408Z,75.26
2018-12-02T12:51:05.831Z,75.78
2018-12-02T12:53:34.295Z,75.51
2018-12-02T12:56:05.865Z,75.39
2018-12-02T12:58:34.350Z,75.03
2018-12-02T13:01:06.319Z,75.40
2018-12-02T13:03:34.778Z,74.80
2018-12-02T13:06:05.613Z,74.98
2018-12-02T13:11:08.068Z,75.37
2018-12-02T13:13:36.480Z,75.42
2018-12-02T13:16:05.333Z,75.26
2018-12-02T13:18:33.725Z,75.41
2018-12-02T13:21:05.428Z,75.66
2018-12-02T13:23:33.827Z,75.77
2018-12-02T13:26:05.160Z,75.41
2018-12-02T13:28:33.557Z,75.62
2018-12-02T13:31:04.453Z,75.37
2018-12-02T13:33:32.863Z,75.07
2018-12-02T13:36:04.180Z,75.60
2018-12-02T13:38:32.928Z,75.19
2018-12-02T13:41:03.461Z,74.55
2018-12-02T13:43:31.872Z,74.82
2018-12-02T13:46:00.318Z,74.21
2018-12-02T13:48:28.725Z,73.84
2018-12-02T13:50:57.128Z,72.98
2018-12-02T13:53:25.587Z,73.33
2018-12-02T13:55:54.032Z,73.73
2018-12-02T13:58:23.978Z,73.25
2018-12-02T14:00:51.789Z,73.02
2018-12-02T14:03:20.231Z,73.14
2018-12-02T14:05:49.238Z,72.15
2018-12-02T14:08:17.831Z,72.87
2018-12-02T14:10:46.452Z,72.77
2018-12-02T14:13:16.656Z,72.48
2018-12-02T14:16:57.102Z,72.45
2018-12-02T14:19:25.555Z,72.49
2018-12-02T14:21:54.124Z,71.69
2018-12-02T14:24:23.056Z,71.68
2018-12-02T14:26:51.649Z,71.82
2018-12-02T14:29:29.688Z,71.18
2018-12-02T14:31:59.628Z,72.45
2018-12-02T14:34:28.286Z,72.21
2018-12-02T14:36:57.113Z,72.43
2018-12-02T14:39:25.609Z,71.93
2018-12-02T14:41:54.061Z,72.04
2018-12-02T14:44:22.531Z,72.29
2018-12-02T14:46:51.070Z,70.91
2018-12-02T14:49:19.537Z,70.75
2018-12-02T14:51:47.933Z,70.02
2018-12-02T14:54:16.381Z,70.88
2018-12-02T14:56:44.793Z,71.67
2018-12-02T14:59:16.169Z,71.14
2018-12-02T15:01:44.660Z,71.27
2018-12-02T15:04:13.056Z,71.58
2018-12-02T15:06:41.502Z,71.32
2018-12-02T15:09:11.461Z,71.04
2018-12-02T15:11:40.112Z,70.66
2018-12-02T15:14:10.870Z,70.58
2018-12-02T15:16:39.286Z,70.90
2018-12-02T15:19:08.707Z,70.78
2018-12-02T15:21:37.113Z,70.66
2018-12-02T15:24:05.695Z,69.94
2018-12-02T15:26:34.093Z,70.00
2018-12-02T15:29:11.053Z,70.47
2018-12-02T15:31:39.445Z,70.09
2018-12-02T15:34:09.689Z,70.28
2018-12-02T15:36:38.112Z,70.34
2018-12-02T15:39:09.826Z,69.85
2018-12-02T15:41:39.041Z,68.93
2018-12-02T15:44:07.866Z,69.36
2018-12-02T15:46:37.124Z,69.59
2018-12-02T15:49:05.782Z,69.42
2018-12-02T15:51:34.228Z,69.81
2018-12-02T15:54:05.917Z,69.29
2018-12-02T15:56:34.443Z,69.91
2018-12-02T15:59:08.920Z,69.19
2018-12-02T16:01:38.503Z,69.94
2018-12-02T16:04:06.950Z,69.50
2018-12-02T16:06:44.963Z,70.09
2018-12-02T16:09:15.023Z,70.31
2018-12-02T16:11:42.348Z,70.68
2018-12-02T16:14:11.039Z,70.52
2018-12-02T16:16:39.565Z,71.00
2018-12-02T16:19:08.456Z,70.94
2018-12-02T16:21:43.530Z,71.02
2018-12-02T16:24:14.005Z,70.92
2018-12-02T16:26:42.596Z,71.57
2018-12-02T16:29:11.123Z,71.34
2018-12-02T16:31:40.584Z,71.59
2018-12-02T16:34:09.095Z,71.54
2018-12-02T16:36:37.679Z,71.53
2018-12-02T16:39:10.550Z,70.92
2018-12-02T16:41:39.410Z,71.29
2018-12-02T16:47:24.990Z,70.61
2018-12-02T16:49:54.870Z,70.72
2018-12-02T16:55:09.902Z,70.15
2018-12-02T16:57:40.254Z,70.62
2018-12-02T17:00:17.410Z,70.58
2018-12-02T17:02:54.435Z,70.59
2018-12-02T17:05:24.093Z,70.71
2018-12-02T17:07:57.049Z,70.38
2018-12-02T17:10:31.722Z,70.07
2018-12-02T17:13:09.196Z,70.47
2018-12-02T17:15:48.657Z,69.53
2018-12-02T17:18:18.470Z,69.62
2018-12-02T17:20:49.723Z,69.56
2018-12-02T17:23:21.163Z,70.36
2018-12-02T17:25:58.168Z,70.18
2018-12-02T17:28:28.925Z,69.90
2018-12-02T17:30:57.376Z,69.50
2018-12-02T17:33:25.841Z,69.95
2018-12-02T17:35:54.332Z,69.85
2018-12-02T17:38:24.430Z,69.82
2018-12-02T17:40:53.925Z,69.44
2018-12-02T17:43:22.408Z,69.21
2018-12-02T17:45:50.852Z,69.67
2018-12-02T17:48:19.278Z,70.23
2018-12-02T17:50:48.330Z,70.60
2018-12-02T17:53:16.758Z,70.33
2018-12-02T17:55:45.276Z,70.96
2018-12-02T17:58:13.687Z,70.50
2018-12-02T18:00:42.233Z,71.11
2018-12-02T18:03:13.961Z,71.28
2018-12-02T18:05:44.349Z,71.51
2018-12-02T18:08:12.877Z,72.44
2018-12-02T18:10:41.792Z,71.82
2018-12-02T18:13:11.236Z,72.37
2018-12-02T18:15:39.694Z,72.04
2018-12-02T18:18:08.560Z,73.10
2018-12-02T18:20:36.973Z,72.76
2018-12-02T18:23:06.073Z,72.22
2018-12-02T18:25:34.505Z,72.34
2018-12-02T18:28:04.328Z,72.42
2018-12-02T18:30:32.832Z,72.66
2018-12-02T18:33:03.628Z,72.70
2018-12-02T18:35:40.236Z,72.10
2018-12-02T18:38:12.461Z,72.02
2018-12-02T18:40:43.001Z,72.01
2018-12-02T18:43:12.214Z,72.26
2018-12-02T18:45:41.077Z,71.42
2018-12-02T18:48:09.542Z,72.06
2018-12-02T18:50:37.997Z,71.77
2018-12-02T18:53:10.915Z,71.74
2018-12-02T18:55:41.607Z,71.67
2018-12-02T18:58:10.053Z,71.23
2018-12-02T19:00:46.415Z,71.59
2018-12-02T19:03:15.813Z,71.89
2018-12-02T19:05:44.311Z,71.42
2018-12-02T19:08:12.764Z,71.84
2018-12-02T19:10:41.509Z,71.26
2018-12-02T19:13:09.964Z,71.62
2018-12-02T19:15:38.582Z,71.21
2018-12-02T19:18:07.068Z,70.70
2018-12-02T19:20:35.565Z,71.21
2018-12-02T19:23:10.015Z,70.23
2018-12-02T19:25:39.215Z,70.72
2018-12-02T19:28:07.748Z,71.20
2018-12-02T19:30:36.690Z,70.56
2018-12-02T19:33:06.738Z,70.19
2018-12-02T19:35:36.436Z,70.56
2018-12-02T19:38:17.030Z,70.32
2018-12-02T19:40:45.701Z,70.21
2018-12-02T19:43:14.117Z,70.63
2018-12-02T19:45:42.577Z,70.03
2018-12-02T19:48:11.326Z,69.97
2018-12-02T19:50:40.465Z,70.10
2018-12-02T19:53:09.384Z,69.77
2018-12-02T19:55:37.992Z,69.78
2018-12-02T19:58:09.955Z,69.68
2018-12-02T20:00:42.301Z,69.55
2018-12-02T20:03:12.937Z,70.03
2018-12-02T20:05:40.932Z,70.26
2018-12-02T20:08:11.417Z,69.66
2018-12-02T20:10:41.987Z,69.14
2018-12-02T20:13:12.896Z,70.21
2018-12-02T20:15:46.877Z,69.48
2018-12-02T20:18:15.517Z,69.09
2018-12-02T20:20:47.612Z,68.59
2018-12-02T20:23:21.577Z,69.75
2018-12-02T20:25:50.862Z,69.46
2018-12-02T20:28:19.538Z,69.75
2018-12-02T20:30:47.995Z,69.45
2018-12-02T20:33:16.485Z,69.30
2018-12-02T20:35:44.921Z,68.61
2018-12-02T20:38:13.389Z,69.16
2018-12-02T20:40:41.901Z,68.45
2018-12-02T20:43:10.465Z,68.83
2018-12-02T20:45:39.037Z,69.23
2018-12-02T20:48:07.564Z,68.65
2018-12-02T20:50:36.340Z,69.15
2018-12-02T20:53:06.061Z,69.40
2018-12-02T20:55:34.773Z,68.67
2018-12-02T20:58:06.357Z,68.39
2018-12-02T21:00:35.515Z,67.62
2018-12-02T21:03:21.745Z,69.31
2018-12-02T21:06:23.306Z,68.94
2018-12-02T21:08:51.865Z,69.13
2018-12-02T21:11:20.495Z,69.18
2018-12-02T21:13:49.307Z,69.74
2018-12-02T21:16:17.804Z,70.13
2018-12-02T21:18:46.266Z,69.92
2018-12-02T21:21:15.038Z,69.87
2018-12-02T21:23:43.537Z,70.55
2018-12-02T21:26:12.598Z,70.98
2018-12-02T21:28:41.753Z,71.34
2018-12-02T21:31:10.279Z,71.52
2018-12-02T21:33:38.684Z,71.72
2018-12-02T21:36:07.921Z,71.81
2018-12-02T21:38:36.457Z,71.07
2018-12-02T21:41:06.166Z,72.01
2018-12-02T21:43:35.469Z,71.86
2018-12-02T21:46:05.641Z,72.32
2018-12-02T21:48:34.070Z,72.41
2018-12-02T21:51:06.217Z,72.56
2018-12-02T21:53:34.656Z,72.98
2018-12-02T21:56:05.249Z,73.01
2018-12-02T21:58:33.686Z,73.19
2018-12-02T22:01:10.535Z,72.97
2018-12-02T22:03:38.977Z,73.61
2018-12-02T22:06:07.406Z,73.54
2018-12-02T22:08:35.890Z,74.95
2018-12-02T22:11:07.178Z,74.88
2018-12-02T22:13:35.673Z,74.40
2018-12-02T22:16:05.958Z,74.43
2018-12-02T22:18:34.430Z,74.73
2018-12-02T22:21:06.083Z,75.12
2018-12-02T22:23:34.595Z,74.86
2018-12-02T22:26:05.254Z,74.78
2018-12-02T22:28:33.672Z,74.57
2018-12-02T22:31:05.581Z,74.73
2018-12-02T22:33:34.034Z,75.59
2018-12-02T22:36:04.528Z,75.61
2018-12-02T22:38:33.016Z,76.59
2018-12-02T22:41:03.711Z,75.95
2018-12-02T22:43:32.129Z,75.11
2018-12-02T22:46:00.576Z,76.13
2018-12-02T22:48:29.017Z,76.13
2018-12-02T22:50:57.488Z,76.38
2018-12-02T22:53:25.898Z,76.49
2018-12-02T22:55:54.505Z,77.02
2018-12-02T22:58:22.941Z,77.37
2018-12-02T23:00:56.663Z,77.50
2018-12-02T23:03:25.158Z,77.60
2018-12-02T23:05:53.568Z,77.84
2018-12-02T23:08:22.036Z,77.95
2018-12-02T23:10:50.457Z,77.94
2018-12-02T23:13:18.928Z,77.71
2018-12-02T23:15:47.359Z,77.71
2018-12-02T23:18:15.838Z,77.40
2018-12-02T23:20:44.269Z,78.13
2018-12-02T23:23:12.713Z,77.15
2018-12-02T23:25:41.144Z,77.32
2018-12-02T23:28:09.633Z,77.65
2018-12-02T23:30:38.065Z,76.63
2018-12-02T23:33:07.283Z,77.43
2018-12-02T23:35:35.920Z,77.41
2018-12-02T23:38:05.937Z,77.17
2018-12-02T23:40:34.455Z,77.33
2018-12-02T23:43:06.145Z,76.87
2018-12-02T23:45:34.574Z,77.19
2018-12-02T23:48:05.425Z,76.38
2018-12-02T23:50:33.841Z,77.12
2018-12-02T23:53:04.577Z,76.55
2018-12-02T23:55:32.994Z,76.65
2018-12-02T23:58:02.790Z,75.70
